sensor_id;sensor_type;location;lat;lon;timestamp;P1;durP1;ratioP1;P2;durP2;ratioP2
819;SDS011;392;48.838;2.322;2022-12-07T00:00:55;32.83;;;25.15;;
819;SDS011;392;48.838;2.322;2022-12-07T00:03:30;33.38;;;27.23;;
819;SDS011;392;48.838;2.322;2022-12-07T00:05:58;30.33;;;23.80;;
819;SDS011;392;48.838;2.322;2022-12-07T00:08:25;35.00;;;24.95;;
819;SDS011;392;48.838;2.322;2022-12-07T00:10:53;32.53;;;25.77;;
819;SDS011;392;48.838;2.322;2022-12-07T00:13:21;31.10;;;25.30;;
819;SDS011;392;48.838;2.322;2022-12-07T00:15:50;34.65;;;24.90;;
819;SDS011;392;48.838;2.322;2022-12-07T00:18:18;31.15;;;23.95;;
819;SDS011;392;48.838;2.322;2022-12-07T00:20:45;31.23;;;23.13;;
819;SDS011;392;48.838;2.322;2022-12-07T00:23:13;29.75;;;23.58;;
819;SDS011;392;48.838;2.322;2022-12-07T00:25:40;30.00;;;24.20;;
819;SDS011;392;48.838;2.322;2022-12-07T00:28:08;30.58;;;25.77;;
819;SDS011;392;48.838;2.322;2022-12-07T00:30:37;36.15;;;28.27;;
819;SDS011;392;48.838;2.322;2022-12-07T00:33:06;35.35;;;27.73;;
819;SDS011;392;48.838;2.322;2022-12-07T00:35:34;38.70;;;29.02;;
819;SDS011;392;48.838;2.322;2022-12-07T00:38:01;40.05;;;30.45;;
819;SDS011;392;48.838;2.322;2022-12-07T00:40:29;36.83;;;28.85;;
819;SDS011;392;48.838;2.322;2022-12-07T00:42:57;40.70;;;30.45;;
819;SDS011;392;48.838;2.322;2022-12-07T00:45:24;41.08;;;32.17;;
819;SDS011;392;48.838;2.322;2022-12-07T00:47:52;38.72;;;31.10;;
819;SDS011;392;48.838;2.322;2022-12-07T00:50:21;41.83;;;29.58;;
819;SDS011;392;48.838;2.322;2022-12-07T00:52:48;38.78;;;29.08;;
819;SDS011;392;48.838;2.322;2022-12-07T00:55:16;35.85;;;27.77;;
819;SDS011;392;48.838;2.322;2022-12-07T00:57:44;32.28;;;27.02;;
819;SDS011;392;48.838;2.322;2022-12-07T01:00:11;37.75;;;28.55;;
819;SDS011;392;48.838;2.322;2022-12-07T01:02:39;36.47;;;27.98;;
819;SDS011;392;48.838;2.322;2022-12-07T01:05:07;31.52;;;25.85;;
819;SDS011;392;48.838;2.322;2022-12-07T01:07:37;34.08;;;25.77;;
819;SDS011;392;48.838;2.322;2022-12-07T01:10:05;31.63;;;24.63;;
819;SDS011;392;48.838;2.322;2022-12-07T01:12:33;30.42;;;24.73;;
819;SDS011;392;48.838;2.322;2022-12-07T01:15:01;31.90;;;25.60;;
819;SDS011;392;48.838;2.322;2022-12-07T01:17:28;33.67;;;27.20;;
819;SDS011;392;48.838;2.322;2022-12-07T01:19:56;35.85;;;26.63;;
819;SDS011;392;48.838;2.322;2022-12-07T01:22:24;34.10;;;26.63;;
819;SDS011;392;48.838;2.322;2022-12-07T01:24:53;31.85;;;25.13;;
819;SDS011;392;48.838;2.322;2022-12-07T01:27:21;32.75;;;24.52;;
819;SDS011;392;48.838;2.322;2022-12-07T01:29:48;31.00;;;23.52;;
819;SDS011;392;48.838;2.322;2022-12-07T01:32:17;31.38;;;23.40;;
819;SDS011;392;48.838;2.322;2022-12-07T01:34:44;31.45;;;23.75;;
819;SDS011;392;48.838;2.322;2022-12-07T01:37:14;30.63;;;24.33;;
819;SDS011;392;48.838;2.322;2022-12-07T01:39:42;34.83;;;24.50;;
819;SDS011;392;48.838;2.322;2022-12-07T01:42:11;29.08;;;22.92;;
819;SDS011;392;48.838;2.322;2022-12-07T01:47:40;29.38;;;23.42;;
819;SDS011;392;48.838;2.322;2022-12-07T01:50:08;31.10;;;23.13;;
819;SDS011;392;48.838;2.322;2022-12-07T01:52:36;30.23;;;23.52;;
819;SDS011;392;48.838;2.322;2022-12-07T01:55:06;29.70;;;24.42;;
819;SDS011;392;48.838;2.322;2022-12-07T01:57:37;31.55;;;24.50;;
819;SDS011;392;48.838;2.322;2022-12-07T02:00:08;29.88;;;23.90;;
819;SDS011;392;48.838;2.322;2022-12-07T02:02:41;29.88;;;23.52;;
819;SDS011;392;48.838;2.322;2022-12-07T02:05:12;33.45;;;25.55;;
819;SDS011;392;48.838;2.322;2022-12-07T02:07:40;33.55;;;25.40;;
819;SDS011;392;48.838;2.322;2022-12-07T02:10:12;33.15;;;24.92;;
819;SDS011;392;48.838;2.322;2022-12-07T02:12:42;32.95;;;23.63;;
819;SDS011;392;48.838;2.322;2022-12-07T02:15:10;31.27;;;23.40;;
819;SDS011;392;48.838;2.322;2022-12-07T02:17:39;30.95;;;22.95;;
819;SDS011;392;48.838;2.322;2022-12-07T02:20:11;31.95;;;22.98;;
819;SDS011;392;48.838;2.322;2022-12-07T02:23:04;28.40;;;22.92;;
819;SDS011;392;48.838;2.322;2022-12-07T02:25:57;29.00;;;22.40;;
819;SDS011;392;48.838;2.322;2022-12-07T02:31:15;28.35;;;22.80;;
819;SDS011;392;48.838;2.322;2022-12-07T02:33:47;31.02;;;21.95;;
819;SDS011;392;48.838;2.322;2022-12-07T02:36:17;27.05;;;21.40;;
819;SDS011;392;48.838;2.322;2022-12-07T02:38:58;26.60;;;21.55;;
819;SDS011;392;48.838;2.322;2022-12-07T02:41:29;27.30;;;20.30;;
819;SDS011;392;48.838;2.322;2022-12-07T02:43:59;26.27;;;20.85;;
819;SDS011;392;48.838;2.322;2022-12-07T02:46:29;27.02;;;20.60;;
819;SDS011;392;48.838;2.322;2022-12-07T02:48:59;25.23;;;19.58;;
819;SDS011;392;48.838;2.322;2022-12-07T02:51:29;26.35;;;20.23;;
819;SDS011;392;48.838;2.322;2022-12-07T02:53:59;28.08;;;20.10;;
819;SDS011;392;48.838;2.322;2022-12-07T02:56:29;26.17;;;19.23;;
819;SDS011;392;48.838;2.322;2022-12-07T02:59:02;24.23;;;18.63;;
819;SDS011;392;48.838;2.322;2022-12-07T03:01:35;25.23;;;20.15;;
819;SDS011;392;48.838;2.322;2022-12-07T03:04:10;26.17;;;20.30;;
819;SDS011;392;48.838;2.322;2022-12-07T03:06:47;22.38;;;19.20;;
819;SDS011;392;48.838;2.322;2022-12-07T03:09:20;25.17;;;19.92;;
819;SDS011;392;48.838;2.322;2022-12-07T03:11:52;27.00;;;19.40;;
819;SDS011;392;48.838;2.322;2022-12-07T03:14:25;25.30;;;18.70;;
819;SDS011;392;48.838;2.322;2022-12-07T03:16:57;26.48;;;20.05;;
819;SDS011;392;48.838;2.322;2022-12-07T03:19:27;25.10;;;19.88;;
819;SDS011;392;48.838;2.322;2022-12-07T03:21:57;27.25;;;20.27;;
819;SDS011;392;48.838;2.322;2022-12-07T03:24:29;28.55;;;20.27;;
819;SDS011;392;48.838;2.322;2022-12-07T03:27:01;29.10;;;20.88;;
819;SDS011;392;48.838;2.322;2022-12-07T03:29:31;25.40;;;19.85;;
819;SDS011;392;48.838;2.322;2022-12-07T03:32:04;25.88;;;18.92;;
819;SDS011;392;48.838;2.322;2022-12-07T03:34:36;26.75;;;19.10;;
819;SDS011;392;48.838;2.322;2022-12-07T03:37:08;27.00;;;20.30;;
819;SDS011;392;48.838;2.322;2022-12-07T03:39:41;28.58;;;20.35;;
819;SDS011;392;48.838;2.322;2022-12-07T03:42:12;24.88;;;19.58;;
819;SDS011;392;48.838;2.322;2022-12-07T03:44:41;24.77;;;18.30;;
819;SDS011;392;48.838;2.322;2022-12-07T03:47:11;26.80;;;19.60;;
819;SDS011;392;48.838;2.322;2022-12-07T03:49:43;23.70;;;18.55;;
819;SDS011;392;48.838;2.322;2022-12-07T03:52:16;24.13;;;18.10;;
819;SDS011;392;48.838;2.322;2022-12-07T03:54:51;22.20;;;18.13;;
819;SDS011;392;48.838;2.322;2022-12-07T03:57:22;23.73;;;19.00;;
819;SDS011;392;48.838;2.322;2022-12-07T03:59:51;22.42;;;18.08;;
819;SDS011;392;48.838;2.322;2022-12-07T04:02:21;24.38;;;18.77;;
819;SDS011;392;48.838;2.322;2022-12-07T04:04:50;24.17;;;18.08;;
819;SDS011;392;48.838;2.322;2022-12-07T04:07:17;21.88;;;18.13;;
819;SDS011;392;48.838;2.322;2022-12-07T04:09:45;22.73;;;17.95;;
819;SDS011;392;48.838;2.322;2022-12-07T04:12:14;20.25;;;16.88;;
819;SDS011;392;48.838;2.322;2022-12-07T04:14:42;20.83;;;16.65;;
819;SDS011;392;48.838;2.322;2022-12-07T04:17:09;19.50;;;15.32;;
819;SDS011;392;48.838;2.322;2022-12-07T04:19:37;19.55;;;15.68;;
819;SDS011;392;48.838;2.322;2022-12-07T04:22:05;20.55;;;16.15;;
819;SDS011;392;48.838;2.322;2022-12-07T04:24:33;20.33;;;15.85;;
819;SDS011;392;48.838;2.322;2022-12-07T04:27:01;19.40;;;15.32;;
819;SDS011;392;48.838;2.322;2022-12-07T04:29:30;18.33;;;15.32;;
819;SDS011;392;48.838;2.322;2022-12-07T04:31:58;19.77;;;15.63;;
819;SDS011;392;48.838;2.322;2022-12-07T04:34:26;18.23;;;14.57;;
819;SDS011;392;48.838;2.322;2022-12-07T04:36:53;17.38;;;14.38;;
819;SDS011;392;48.838;2.322;2022-12-07T04:39:22;18.65;;;16.23;;
819;SDS011;392;48.838;2.322;2022-12-07T04:41:52;18.48;;;14.65;;
819;SDS011;392;48.838;2.322;2022-12-07T04:44:20;20.17;;;15.70;;
819;SDS011;392;48.838;2.322;2022-12-07T04:46:49;17.90;;;14.70;;
819;SDS011;392;48.838;2.322;2022-12-07T04:49:18;18.70;;;14.73;;
819;SDS011;392;48.838;2.322;2022-12-07T04:51:46;19.45;;;15.27;;
819;SDS011;392;48.838;2.322;2022-12-07T04:54:15;18.95;;;15.90;;
819;SDS011;392;48.838;2.322;2022-12-07T04:56:43;18.58;;;15.05;;
819;SDS011;392;48.838;2.322;2022-12-07T04:59:11;19.80;;;15.85;;
819;SDS011;392;48.838;2.322;2022-12-07T05:01:40;20.58;;;16.10;;
819;SDS011;392;48.838;2.322;2022-12-07T05:04:09;16.63;;;14.75;;
819;SDS011;392;48.838;2.322;2022-12-07T05:06:37;17.52;;;14.20;;
819;SDS011;392;48.838;2.322;2022-12-07T05:09:05;19.35;;;15.18;;
819;SDS011;392;48.838;2.322;2022-12-07T05:11:33;20.40;;;16.83;;
819;SDS011;392;48.838;2.322;2022-12-07T05:14:08;18.92;;;15.20;;
819;SDS011;392;48.838;2.322;2022-12-07T05:16:38;17.50;;;14.13;;
819;SDS011;392;48.838;2.322;2022-12-07T05:19:07;19.05;;;15.45;;
819;SDS011;392;48.838;2.322;2022-12-07T05:21:36;18.48;;;15.20;;
819;SDS011;392;48.838;2.322;2022-12-07T05:24:05;17.38;;;14.88;;
819;SDS011;392;48.838;2.322;2022-12-07T05:26:33;18.75;;;14.90;;
819;SDS011;392;48.838;2.322;2022-12-07T05:29:01;19.58;;;15.25;;
819;SDS011;392;48.838;2.322;2022-12-07T05:31:29;18.45;;;15.45;;
819;SDS011;392;48.838;2.322;2022-12-07T05:33:56;19.17;;;15.38;;
819;SDS011;392;48.838;2.322;2022-12-07T05:36:24;19.35;;;15.55;;
819;SDS011;392;48.838;2.322;2022-12-07T05:38:55;19.50;;;16.20;;
819;SDS011;392;48.838;2.322;2022-12-07T05:41:22;20.92;;;16.45;;
819;SDS011;392;48.838;2.322;2022-12-07T05:44:07;18.95;;;15.13;;
819;SDS011;392;48.838;2.322;2022-12-07T05:46:35;18.52;;;15.13;;
819;SDS011;392;48.838;2.322;2022-12-07T05:49:03;21.13;;;15.35;;
819;SDS011;392;48.838;2.322;2022-12-07T05:51:31;20.70;;;16.27;;
819;SDS011;392;48.838;2.322;2022-12-07T05:54:00;20.27;;;16.10;;
819;SDS011;392;48.838;2.322;2022-12-07T05:56:28;18.02;;;15.93;;
819;SDS011;392;48.838;2.322;2022-12-07T05:58:55;21.17;;;15.77;;
819;SDS011;392;48.838;2.322;2022-12-07T06:01:41;18.13;;;15.82;;
819;SDS011;392;48.838;2.322;2022-12-07T06:04:08;19.35;;;16.90;;
819;SDS011;392;48.838;2.322;2022-12-07T06:06:36;18.63;;;15.75;;
819;SDS011;392;48.838;2.322;2022-12-07T06:09:05;18.63;;;15.88;;
819;SDS011;392;48.838;2.322;2022-12-07T06:11:33;20.88;;;15.90;;
819;SDS011;392;48.838;2.322;2022-12-07T06:14:18;17.52;;;14.68;;
819;SDS011;392;48.838;2.322;2022-12-07T06:16:46;17.42;;;15.55;;
819;SDS011;392;48.838;2.322;2022-12-07T06:19:14;16.75;;;13.85;;
819;SDS011;392;48.838;2.322;2022-12-07T06:21:42;17.73;;;14.73;;
819;SDS011;392;48.838;2.322;2022-12-07T06:24:11;17.92;;;14.25;;
819;SDS011;392;48.838;2.322;2022-12-07T06:26:40;20.23;;;15.63;;
819;SDS011;392;48.838;2.322;2022-12-07T06:29:09;20.52;;;15.90;;
819;SDS011;392;48.838;2.322;2022-12-07T06:31:37;17.33;;;14.80;;
819;SDS011;392;48.838;2.322;2022-12-07T06:34:05;18.25;;;15.20;;
819;SDS011;392;48.838;2.322;2022-12-07T06:36:35;18.00;;;16.08;;
819;SDS011;392;48.838;2.322;2022-12-07T06:39:03;18.48;;;15.85;;
819;SDS011;392;48.838;2.322;2022-12-07T06:41:32;18.17;;;16.27;;
819;SDS011;392;48.838;2.322;2022-12-07T06:43:59;19.92;;;16.45;;
819;SDS011;392;48.838;2.322;2022-12-07T06:46:27;18.42;;;16.42;;
819;SDS011;392;48.838;2.322;2022-12-07T06:48:55;18.15;;;15.48;;
819;SDS011;392;48.838;2.322;2022-12-07T06:51:23;20.00;;;15.32;;
819;SDS011;392;48.838;2.322;2022-12-07T06:53:51;18.65;;;16.10;;
819;SDS011;392;48.838;2.322;2022-12-07T06:56:19;17.45;;;14.73;;
819;SDS011;392;48.838;2.322;2022-12-07T06:58:49;17.20;;;14.18;;
819;SDS011;392;48.838;2.322;2022-12-07T07:01:17;19.02;;;15.05;;
819;SDS011;392;48.838;2.322;2022-12-07T07:03:45;15.88;;;13.82;;
819;SDS011;392;48.838;2.322;2022-12-07T07:06:13;16.75;;;13.88;;
819;SDS011;392;48.838;2.322;2022-12-07T07:08:41;17.23;;;14.52;;
819;SDS011;392;48.838;2.322;2022-12-07T07:11:11;16.35;;;14.40;;
819;SDS011;392;48.838;2.322;2022-12-07T07:13:39;16.35;;;14.45;;
819;SDS011;392;48.838;2.322;2022-12-07T07:16:08;17.17;;;15.25;;
819;SDS011;392;48.838;2.322;2022-12-07T07:18:36;17.40;;;15.48;;
819;SDS011;392;48.838;2.322;2022-12-07T07:21:04;18.13;;;14.90;;
819;SDS011;392;48.838;2.322;2022-12-07T07:23:32;19.35;;;16.20;;
819;SDS011;392;48.838;2.322;2022-12-07T07:25:59;15.98;;;14.27;;
819;SDS011;392;48.838;2.322;2022-12-07T07:28:27;18.00;;;14.40;;
819;SDS011;392;48.838;2.322;2022-12-07T07:30:55;17.25;;;14.70;;
819;SDS011;392;48.838;2.322;2022-12-07T07:33:24;17.80;;;15.10;;
819;SDS011;392;48.838;2.322;2022-12-07T07:35:52;17.83;;;14.77;;
819;SDS011;392;48.838;2.322;2022-12-07T07:38:20;16.98;;;15.00;;
819;SDS011;392;48.838;2.322;2022-12-07T07:40:48;18.27;;;15.88;;
819;SDS011;392;48.838;2.322;2022-12-07T07:43:16;16.52;;;14.10;;
819;SDS011;392;48.838;2.322;2022-12-07T07:45:44;19.58;;;16.10;;
819;SDS011;392;48.838;2.322;2022-12-07T07:48:13;16.05;;;14.45;;
819;SDS011;392;48.838;2.322;2022-12-07T07:50:43;17.92;;;15.32;;
819;SDS011;392;48.838;2.322;2022-12-07T07:53:11;19.45;;;17.20;;
819;SDS011;392;48.838;2.322;2022-12-07T07:55:39;17.75;;;15.25;;
819;SDS011;392;48.838;2.322;2022-12-07T07:58:07;17.55;;;15.00;;
819;SDS011;392;48.838;2.322;2022-12-07T08:00:35;16.20;;;14.50;;
819;SDS011;392;48.838;2.322;2022-12-07T08:03:02;16.75;;;14.27;;
819;SDS011;392;48.838;2.322;2022-12-07T08:05:30;16.73;;;15.02;;
819;SDS011;392;48.838;2.322;2022-12-07T08:07:59;15.60;;;14.00;;
819;SDS011;392;48.838;2.322;2022-12-07T08:10:27;18.60;;;14.70;;
819;SDS011;392;48.838;2.322;2022-12-07T08:12:58;17.50;;;14.77;;
819;SDS011;392;48.838;2.322;2022-12-07T08:15:39;15.80;;;14.00;;
819;SDS011;392;48.838;2.322;2022-12-07T08:18:08;17.50;;;14.10;;
819;SDS011;392;48.838;2.322;2022-12-07T08:20:36;15.70;;;13.38;;
819;SDS011;392;48.838;2.322;2022-12-07T08:23:06;16.75;;;14.95;;
819;SDS011;392;48.838;2.322;2022-12-07T08:25:38;17.20;;;14.05;;
819;SDS011;392;48.838;2.322;2022-12-07T08:28:06;16.80;;;14.18;;
819;SDS011;392;48.838;2.322;2022-12-07T08:30:34;16.23;;;14.20;;
819;SDS011;392;48.838;2.322;2022-12-07T08:33:02;18.67;;;14.40;;
819;SDS011;392;48.838;2.322;2022-12-07T08:35:32;16.03;;;13.90;;
819;SDS011;392;48.838;2.322;2022-12-07T08:38:00;15.57;;;13.50;;
819;SDS011;392;48.838;2.322;2022-12-07T08:40:30;15.75;;;13.93;;
819;SDS011;392;48.838;2.322;2022-12-07T08:42:58;15.07;;;13.48;;
819;SDS011;392;48.838;2.322;2022-12-07T08:45:26;15.60;;;13.68;;
819;SDS011;392;48.838;2.322;2022-12-07T08:47:58;17.20;;;14.40;;
819;SDS011;392;48.838;2.322;2022-12-07T08:50:37;15.27;;;13.68;;
819;SDS011;392;48.838;2.322;2022-12-07T08:53:05;15.23;;;13.32;;
819;SDS011;392;48.838;2.322;2022-12-07T08:55:41;16.33;;;14.63;;
819;SDS011;392;48.838;2.322;2022-12-07T08:58:09;15.30;;;13.70;;
819;SDS011;392;48.838;2.322;2022-12-07T09:00:37;17.13;;;14.40;;
819;SDS011;392;48.838;2.322;2022-12-07T09:03:05;15.43;;;13.50;;
819;SDS011;392;48.838;2.322;2022-12-07T09:05:34;15.80;;;13.23;;
819;SDS011;392;48.838;2.322;2022-12-07T09:08:03;15.33;;;13.73;;
819;SDS011;392;48.838;2.322;2022-12-07T09:10:34;15.50;;;13.90;;
819;SDS011;392;48.838;2.322;2022-12-07T09:13:03;16.57;;;13.37;;
819;SDS011;392;48.838;2.322;2022-12-07T09:15:30;17.97;;;13.40;;
819;SDS011;392;48.838;2.322;2022-12-07T09:17:58;18.80;;;15.20;;
819;SDS011;392;48.838;2.322;2022-12-07T09:20:26;17.60;;;14.13;;
819;SDS011;392;48.838;2.322;2022-12-07T09:22:54;15.60;;;13.63;;
819;SDS011;392;48.838;2.322;2022-12-07T09:25:22;14.70;;;13.20;;
819;SDS011;392;48.838;2.322;2022-12-07T09:27:54;15.33;;;13.20;;
819;SDS011;392;48.838;2.322;2022-12-07T09:30:24;15.02;;;13.45;;
819;SDS011;392;48.838;2.322;2022-12-07T09:32:53;18.17;;;13.90;;
819;SDS011;392;48.838;2.322;2022-12-07T09:35:22;14.83;;;13.27;;
819;SDS011;392;48.838;2.322;2022-12-07T09:37:50;15.53;;;13.57;;
819;SDS011;392;48.838;2.322;2022-12-07T09:40:19;16.20;;;13.90;;
819;SDS011;392;48.838;2.322;2022-12-07T09:42:48;17.47;;;14.37;;
819;SDS011;392;48.838;2.322;2022-12-07T09:45:18;16.00;;;14.30;;
819;SDS011;392;48.838;2.322;2022-12-07T09:47:49;15.77;;;13.00;;
819;SDS011;392;48.838;2.322;2022-12-07T09:50:19;15.23;;;13.73;;
819;SDS011;392;48.838;2.322;2022-12-07T09:52:48;17.73;;;13.70;;
819;SDS011;392;48.838;2.322;2022-12-07T09:55:18;14.77;;;12.60;;
819;SDS011;392;48.838;2.322;2022-12-07T09:57:50;16.30;;;13.23;;
819;SDS011;392;48.838;2.322;2022-12-07T10:00:20;14.07;;;12.53;;
819;SDS011;392;48.838;2.322;2022-12-07T10:02:52;14.80;;;13.17;;
819;SDS011;392;48.838;2.322;2022-12-07T10:05:24;16.07;;;13.57;;
819;SDS011;392;48.838;2.322;2022-12-07T10:07:59;15.30;;;13.90;;
819;SDS011;392;48.838;2.322;2022-12-07T10:10:30;15.23;;;13.20;;
819;SDS011;392;48.838;2.322;2022-12-07T10:12:59;14.80;;;13.03;;
819;SDS011;392;48.838;2.322;2022-12-07T10:15:45;14.77;;;12.43;;
819;SDS011;392;48.838;2.322;2022-12-07T10:18:25;15.47;;;13.10;;
819;SDS011;392;48.838;2.322;2022-12-07T10:21:02;15.13;;;13.53;;
819;SDS011;392;48.838;2.322;2022-12-07T10:23:42;15.60;;;13.47;;
819;SDS011;392;48.838;2.322;2022-12-07T10:26:32;14.83;;;13.23;;
819;SDS011;392;48.838;2.322;2022-12-07T10:29:02;17.93;;;13.43;;
819;SDS011;392;48.838;2.322;2022-12-07T10:31:40;14.90;;;13.30;;
819;SDS011;392;48.838;2.322;2022-12-07T10:34:15;15.53;;;14.13;;
819;SDS011;392;48.838;2.322;2022-12-07T10:36:49;14.00;;;12.60;;
819;SDS011;392;48.838;2.322;2022-12-07T10:39:19;16.20;;;13.80;;
819;SDS011;392;48.838;2.322;2022-12-07T10:41:54;21.73;;;19.57;;
819;SDS011;392;48.838;2.322;2022-12-07T10:44:23;15.20;;;13.63;;
819;SDS011;392;48.838;2.322;2022-12-07T10:47:01;15.13;;;13.63;;
819;SDS011;392;48.838;2.322;2022-12-07T10:52:51;14.53;;;12.97;;
819;SDS011;392;48.838;2.322;2022-12-07T10:55:53;16.60;;;13.00;;
819;SDS011;392;48.838;2.322;2022-12-07T10:58:31;15.00;;;13.40;;
819;SDS011;392;48.838;2.322;2022-12-07T11:01:12;15.00;;;13.13;;
819;SDS011;392;48.838;2.322;2022-12-07T11:03:49;18.33;;;14.10;;
819;SDS011;392;48.838;2.322;2022-12-07T11:06:27;16.33;;;14.63;;
819;SDS011;392;48.838;2.322;2022-12-07T11:09:04;17.43;;;14.43;;
819;SDS011;392;48.838;2.322;2022-12-07T11:11:51;14.80;;;13.20;;
819;SDS011;392;48.838;2.322;2022-12-07T11:14:24;14.53;;;13.13;;
819;SDS011;392;48.838;2.322;2022-12-07T11:16:56;16.90;;;12.80;;
819;SDS011;392;48.838;2.322;2022-12-07T11:22:25;14.43;;;12.83;;
819;SDS011;392;48.838;2.322;2022-12-07T11:24:57;16.90;;;13.17;;
819;SDS011;392;48.838;2.322;2022-12-07T11:27:31;14.37;;;12.90;;
819;SDS011;392;48.838;2.322;2022-12-07T11:30:03;16.03;;;13.30;;
819;SDS011;392;48.838;2.322;2022-12-07T11:32:42;13.60;;;12.30;;
819;SDS011;392;48.838;2.322;2022-12-07T11:35:18;17.20;;;13.67;;
819;SDS011;392;48.838;2.322;2022-12-07T11:37:55;18.13;;;13.83;;
819;SDS011;392;48.838;2.322;2022-12-07T11:40:26;15.00;;;13.30;;
819;SDS011;392;48.838;2.322;2022-12-07T11:42:57;16.00;;;14.30;;
819;SDS011;392;48.838;2.322;2022-12-07T11:45:26;15.20;;;13.70;;
819;SDS011;392;48.838;2.322;2022-12-07T11:47:57;15.40;;;13.37;;
819;SDS011;392;48.838;2.322;2022-12-07T11:50:30;15.40;;;13.67;;
819;SDS011;392;48.838;2.322;2022-12-07T11:53:02;15.47;;;13.97;;
819;SDS011;392;48.838;2.322;2022-12-07T11:55:38;17.20;;;12.97;;
819;SDS011;392;48.838;2.322;2022-12-07T11:58:13;14.83;;;11.43;;
819;SDS011;392;48.838;2.322;2022-12-07T12:00:49;14.57;;;12.37;;
819;SDS011;392;48.838;2.322;2022-12-07T12:03:20;13.20;;;11.50;;
819;SDS011;392;48.838;2.322;2022-12-07T12:05:55;14.47;;;11.50;;
819;SDS011;392;48.838;2.322;2022-12-07T12:08:26;14.77;;;12.13;;
819;SDS011;392;48.838;2.322;2022-12-07T12:10:58;15.97;;;12.67;;
819;SDS011;392;48.838;2.322;2022-12-07T12:16:41;13.53;;;12.23;;
819;SDS011;392;48.838;2.322;2022-12-07T12:19:30;16.93;;;13.73;;
819;SDS011;392;48.838;2.322;2022-12-07T12:22:02;18.47;;;13.57;;
819;SDS011;392;48.838;2.322;2022-12-07T12:24:36;15.43;;;13.60;;
819;SDS011;392;48.838;2.322;2022-12-07T12:27:06;15.23;;;12.80;;
819;SDS011;392;48.838;2.322;2022-12-07T12:29:37;15.83;;;13.93;;
819;SDS011;392;48.838;2.322;2022-12-07T12:32:07;17.13;;;15.30;;
819;SDS011;392;48.838;2.322;2022-12-07T12:34:41;16.53;;;14.87;;
819;SDS011;392;48.838;2.322;2022-12-07T12:37:41;17.43;;;13.97;;
819;SDS011;392;48.838;2.322;2022-12-07T12:46:37;15.90;;;14.30;;
819;SDS011;392;48.838;2.322;2022-12-07T12:49:32;20.37;;;15.77;;
819;SDS011;392;48.838;2.322;2022-12-07T12:55:12;17.27;;;14.27;;
819;SDS011;392;48.838;2.322;2022-12-07T12:57:46;17.70;;;15.80;;
819;SDS011;392;48.838;2.322;2022-12-07T13:00:18;17.07;;;15.37;;
819;SDS011;392;48.838;2.322;2022-12-07T13:02:48;19.60;;;17.33;;
819;SDS011;392;48.838;2.322;2022-12-07T13:05:18;17.97;;;16.07;;
819;SDS011;392;48.838;2.322;2022-12-07T13:07:49;16.47;;;14.77;;
819;SDS011;392;48.838;2.322;2022-12-07T13:10:35;16.30;;;14.60;;
819;SDS011;392;48.838;2.322;2022-12-07T13:25:29;17.43;;;15.30;;
819;SDS011;392;48.838;2.322;2022-12-07T13:28:07;19.70;;;16.90;;
819;SDS011;392;48.838;2.322;2022-12-07T13:30:42;18.50;;;15.63;;
819;SDS011;392;48.838;2.322;2022-12-07T13:33:17;14.87;;;13.27;;
819;SDS011;392;48.838;2.322;2022-12-07T13:35:45;17.13;;;15.33;;
819;SDS011;392;48.838;2.322;2022-12-07T13:38:19;18.10;;;16.20;;
819;SDS011;392;48.838;2.322;2022-12-07T13:41:01;21.77;;;16.60;;
819;SDS011;392;48.838;2.322;2022-12-07T13:43:30;19.57;;;17.60;;
819;SDS011;392;48.838;2.322;2022-12-07T13:46:09;17.77;;;15.77;;
819;SDS011;392;48.838;2.322;2022-12-07T13:48:44;17.73;;;15.90;;
819;SDS011;392;48.838;2.322;2022-12-07T13:51:17;17.80;;;15.60;;
819;SDS011;392;48.838;2.322;2022-12-07T13:53:48;18.70;;;16.80;;
819;SDS011;392;48.838;2.322;2022-12-07T13:56:17;17.20;;;14.60;;
819;SDS011;392;48.838;2.322;2022-12-07T13:58:45;17.33;;;15.73;;
819;SDS011;392;48.838;2.322;2022-12-07T14:01:14;17.50;;;15.63;;
819;SDS011;392;48.838;2.322;2022-12-07T14:03:43;18.30;;;16.40;;
819;SDS011;392;48.838;2.322;2022-12-07T14:06:16;15.73;;;14.10;;
819;SDS011;392;48.838;2.322;2022-12-07T14:08:50;17.07;;;15.37;;
819;SDS011;392;48.838;2.322;2022-12-07T14:11:32;16.90;;;14.50;;
819;SDS011;392;48.838;2.322;2022-12-07T14:14:00;14.43;;;12.93;;
819;SDS011;392;48.838;2.322;2022-12-07T14:16:30;14.83;;;13.43;;
819;SDS011;392;48.838;2.322;2022-12-07T14:19:00;15.20;;;13.70;;
819;SDS011;392;48.838;2.322;2022-12-07T14:21:30;16.13;;;13.50;;
819;SDS011;392;48.838;2.322;2022-12-07T14:26:46;16.40;;;13.73;;
819;SDS011;392;48.838;2.322;2022-12-07T14:32:16;15.53;;;13.90;;
819;SDS011;392;48.838;2.322;2022-12-07T14:34:54;14.93;;;13.27;;
819;SDS011;392;48.838;2.322;2022-12-07T14:37:23;13.43;;;12.13;;
819;SDS011;392;48.838;2.322;2022-12-07T14:39:51;16.23;;;14.60;;
819;SDS011;392;48.838;2.322;2022-12-07T14:42:19;12.77;;;11.60;;
819;SDS011;392;48.838;2.322;2022-12-07T14:44:47;15.30;;;13.00;;
819;SDS011;392;48.838;2.322;2022-12-07T14:47:17;14.07;;;12.67;;
819;SDS011;392;48.838;2.322;2022-12-07T14:49:44;14.87;;;12.10;;
819;SDS011;392;48.838;2.322;2022-12-07T14:52:13;17.27;;;13.47;;
819;SDS011;392;48.838;2.322;2022-12-07T14:54:43;14.57;;;13.10;;
819;SDS011;392;48.838;2.322;2022-12-07T14:57:11;16.90;;;12.87;;
819;SDS011;392;48.838;2.322;2022-12-07T14:59:39;13.93;;;12.53;;
819;SDS011;392;48.838;2.322;2022-12-07T15:02:08;14.10;;;12.57;;
819;SDS011;392;48.838;2.322;2022-12-07T15:04:38;14.03;;;12.53;;
819;SDS011;392;48.838;2.322;2022-12-07T15:07:10;15.13;;;12.83;;
819;SDS011;392;48.838;2.322;2022-12-07T15:09:42;16.40;;;13.80;;
819;SDS011;392;48.838;2.322;2022-12-07T15:12:10;15.60;;;13.20;;
819;SDS011;392;48.838;2.322;2022-12-07T15:14:38;13.80;;;12.33;;
819;SDS011;392;48.838;2.322;2022-12-07T15:17:07;13.50;;;12.20;;
819;SDS011;392;48.838;2.322;2022-12-07T15:19:38;14.23;;;12.83;;
819;SDS011;392;48.838;2.322;2022-12-07T15:22:07;13.90;;;12.50;;
819;SDS011;392;48.838;2.322;2022-12-07T15:24:36;14.77;;;12.50;;
819;SDS011;392;48.838;2.322;2022-12-07T15:27:04;11.57;;;10.47;;
819;SDS011;392;48.838;2.322;2022-12-07T15:29:32;15.57;;;12.67;;
819;SDS011;392;48.838;2.322;2022-12-07T15:32:00;13.87;;;12.37;;
819;SDS011;392;48.838;2.322;2022-12-07T15:34:28;12.50;;;11.30;;
819;SDS011;392;48.838;2.322;2022-12-07T15:36:58;13.13;;;11.83;;
819;SDS011;392;48.838;2.322;2022-12-07T15:39:27;13.30;;;11.60;;
819;SDS011;392;48.838;2.322;2022-12-07T15:41:55;13.10;;;10.47;;
819;SDS011;392;48.838;2.322;2022-12-07T15:44:22;13.00;;;11.60;;
819;SDS011;392;48.838;2.322;2022-12-07T15:47:07;13.80;;;12.50;;
819;SDS011;392;48.838;2.322;2022-12-07T15:49:35;15.00;;;11.73;;
819;SDS011;392;48.838;2.322;2022-12-07T15:52:05;13.00;;;11.70;;
819;SDS011;392;48.838;2.322;2022-12-07T15:54:32;13.87;;;12.33;;
819;SDS011;392;48.838;2.322;2022-12-07T15:57:00;14.07;;;12.67;;
819;SDS011;392;48.838;2.322;2022-12-07T15:59:28;16.00;;;14.43;;
819;SDS011;392;48.838;2.322;2022-12-07T16:01:56;14.20;;;12.80;;
819;SDS011;392;48.838;2.322;2022-12-07T16:04:26;13.67;;;12.30;;
819;SDS011;392;48.838;2.322;2022-12-07T16:06:55;15.50;;;12.40;;
819;SDS011;392;48.838;2.322;2022-12-07T16:09:24;14.43;;;12.97;;
819;SDS011;392;48.838;2.322;2022-12-07T16:11:52;17.10;;;15.30;;
819;SDS011;392;48.838;2.322;2022-12-07T16:14:20;14.30;;;12.80;;
819;SDS011;392;48.838;2.322;2022-12-07T16:16:49;14.07;;;11.70;;
819;SDS011;392;48.838;2.322;2022-12-07T16:19:16;15.57;;;11.63;;